sensor_id;sensor_type;location;lat;lon;timestamp;P1;durP1;ratioP1;P2;durP2;ratioP2
57071;SDS011;42956;51.366;11.298;2023-04-03T00:00:56;4.68;;;2.17;;
57071;SDS011;42956;51.366;11.298;2023-04-03T00:03:24;5.13;;;1.50;;
57071;SDS011;42956;51.366;11.298;2023-04-03T00:05:52;12.80;;;2.50;;
57071;SDS011;42956;51.366;11.298;2023-04-03T00:08:20;7.25;;;1.88;;
57071;SDS011;42956;51.366;11.298;2023-04-03T00:10:48;10.82;;;2.00;;
57071;SDS011;42956;51.366;11.298;2023-04-03T00:13:18;9.77;;;2.38;;
57071;SDS011;42956;51.366;11.298;2023-04-03T00:15:46;4.55;;;1.50;;
57071;SDS011;42956;51.366;11.298;2023-04-03T00:18:13;9.25;;;2.58;;
57071;SDS011;42956;51.366;11.298;2023-04-03T00:20:41;9.35;;;1.88;;
57071;SDS011;42956;51.366;11.298;2023-04-03T00:23:09;7.13;;;2.78;;
57071;SDS011;42956;51.366;11.298;2023-04-03T00:25:37;5.15;;;1.95;;
57071;SDS011;42956;51.366;11.298;2023-04-03T00:28:05;5.78;;;2.08;;
57071;SDS011;42956;51.366;11.298;2023-04-03T00:30:34;5.05;;;2.13;;
57071;SDS011;42956;51.366;11.298;2023-04-03T00:33:03;4.70;;;1.70;;
57071;SDS011;42956;51.366;11.298;2023-04-03T00:35:31;5.13;;;2.15;;
57071;SDS011;42956;51.366;11.298;2023-04-03T00:37:59;7.25;;;2.28;;
57071;SDS011;42956;51.366;11.298;2023-04-03T00:40:27;6.57;;;1.98;;
57071;SDS011;42956;51.366;11.298;2023-04-03T00:42:56;7.05;;;1.98;;
57071;SDS011;42956;51.366;11.298;2023-04-03T00:45:29;7.07;;;2.03;;
57071;SDS011;42956;51.366;11.298;2023-04-03T00:47:59;6.45;;;1.58;;
57071;SDS011;42956;51.366;11.298;2023-04-03T00:50:28;6.10;;;2.42;;
57071;SDS011;42956;51.366;11.298;2023-04-03T00:52:57;9.07;;;2.20;;
57071;SDS011;42956;51.366;11.298;2023-04-03T00:55:25;9.95;;;1.90;;
57071;SDS011;42956;51.366;11.298;2023-04-03T00:57:53;5.18;;;1.70;;
57071;SDS011;42956;51.366;11.298;2023-04-03T01:00:22;11.07;;;1.83;;
57071;SDS011;42956;51.366;11.298;2023-04-03T01:02:50;7.18;;;2.03;;
57071;SDS011;42956;51.366;11.298;2023-04-03T01:05:20;5.30;;;1.70;;
57071;SDS011;42956;51.366;11.298;2023-04-03T01:07:48;6.47;;;1.95;;
57071;SDS011;42956;51.366;11.298;2023-04-03T01:10:17;6.68;;;2.10;;
57071;SDS011;42956;51.366;11.298;2023-04-03T01:12:47;5.70;;;1.88;;
57071;SDS011;42956;51.366;11.298;2023-04-03T01:15:17;3.35;;;1.67;;
57071;SDS011;42956;51.366;11.298;2023-04-03T01:18:39;8.00;;;2.03;;
57071;SDS011;42956;51.366;11.298;2023-04-03T01:23:54;6.60;;;1.65;;
57071;SDS011;42956;51.366;11.298;2023-04-03T01:26:24;5.03;;;2.10;;
57071;SDS011;42956;51.366;11.298;2023-04-03T01:28:53;8.23;;;2.28;;
57071;SDS011;42956;51.366;11.298;2023-04-03T01:31:22;7.57;;;2.17;;
57071;SDS011;42956;51.366;11.298;2023-04-03T01:33:52;3.97;;;2.03;;
57071;SDS011;42956;51.366;11.298;2023-04-03T01:36:21;5.68;;;2.00;;
57071;SDS011;42956;51.366;11.298;2023-04-03T01:38:49;9.60;;;1.90;;
57071;SDS011;42956;51.366;11.298;2023-04-03T01:41:18;4.22;;;1.70;;
57071;SDS011;42956;51.366;11.298;2023-04-03T01:43:47;9.50;;;1.88;;
57071;SDS011;42956;51.366;11.298;2023-04-03T01:46:15;9.35;;;2.13;;
57071;SDS011;42956;51.366;11.298;2023-04-03T01:48:43;7.18;;;1.65;;
57071;SDS011;42956;51.366;11.298;2023-04-03T01:51:12;8.68;;;1.90;;
57071;SDS011;42956;51.366;11.298;2023-04-03T01:53:40;5.43;;;2.10;;
57071;SDS011;42956;51.366;11.298;2023-04-03T01:56:08;8.63;;;2.13;;
57071;SDS011;42956;51.366;11.298;2023-04-03T01:58:36;11.32;;;1.90;;
57071;SDS011;42956;51.366;11.298;2023-04-03T02:01:04;4.93;;;2.03;;
57071;SDS011;42956;51.366;11.298;2023-04-03T02:03:33;12.07;;;2.40;;
57071;SDS011;42956;51.366;11.298;2023-04-03T02:06:01;7.93;;;2.53;;
57071;SDS011;42956;51.366;11.298;2023-04-03T02:08:30;4.63;;;2.00;;
57071;SDS011;42956;51.366;11.298;2023-04-03T02:10:58;7.90;;;2.10;;
57071;SDS011;42956;51.366;11.298;2023-04-03T02:13:26;4.00;;;2.03;;
57071;SDS011;42956;51.366;11.298;2023-04-03T02:15:54;7.28;;;2.17;;
57071;SDS011;42956;51.366;11.298;2023-04-03T02:18:22;7.80;;;2.03;;
57071;SDS011;42956;51.366;11.298;2023-04-03T02:20:49;3.63;;;1.63;;
57071;SDS011;42956;51.366;11.298;2023-04-03T02:23:17;5.38;;;2.83;;
57071;SDS011;42956;51.366;11.298;2023-04-03T02:25:46;7.00;;;2.25;;
57071;SDS011;42956;51.366;11.298;2023-04-03T02:28:15;7.72;;;2.67;;
57071;SDS011;42956;51.366;11.298;2023-04-03T02:30:43;2.85;;;1.55;;
57071;SDS011;42956;51.366;11.298;2023-04-03T02:33:11;6.80;;;1.98;;
57071;SDS011;42956;51.366;11.298;2023-04-03T02:35:38;5.32;;;2.55;;
57071;SDS011;42956;51.366;11.298;2023-04-03T02:38:07;8.70;;;2.08;;
57071;SDS011;42956;51.366;11.298;2023-04-03T02:40:35;6.15;;;1.85;;
57071;SDS011;42956;51.366;11.298;2023-04-03T02:43:04;5.13;;;1.85;;
57071;SDS011;42956;51.366;11.298;2023-04-03T02:45:32;16.08;;;3.00;;
57071;SDS011;42956;51.366;11.298;2023-04-03T02:48:00;5.47;;;2.03;;
57071;SDS011;42956;51.366;11.298;2023-04-03T02:50:28;7.15;;;1.90;;
57071;SDS011;42956;51.366;11.298;2023-04-03T02:52:56;12.48;;;2.15;;
57071;SDS011;42956;51.366;11.298;2023-04-03T02:55:24;7.82;;;2.00;;
57071;SDS011;42956;51.366;11.298;2023-04-03T02:57:52;11.05;;;2.60;;
57071;SDS011;42956;51.366;11.298;2023-04-03T03:00:21;12.77;;;2.20;;
57071;SDS011;42956;51.366;11.298;2023-04-03T03:02:49;3.15;;;1.98;;
57071;SDS011;42956;51.366;11.298;2023-04-03T03:05:17;3.63;;;2.25;;
57071;SDS011;42956;51.366;11.298;2023-04-03T03:07:45;5.80;;;2.00;;
57071;SDS011;42956;51.366;11.298;2023-04-03T03:10:13;5.18;;;2.10;;
57071;SDS011;42956;51.366;11.298;2023-04-03T03:12:42;5.20;;;2.10;;
57071;SDS011;42956;51.366;11.298;2023-04-03T03:15:10;5.28;;;1.83;;
57071;SDS011;42956;51.366;11.298;2023-04-03T03:17:39;5.72;;;2.28;;
57071;SDS011;42956;51.366;11.298;2023-04-03T03:20:07;6.65;;;2.10;;
57071;SDS011;42956;51.366;11.298;2023-04-03T03:22:35;10.88;;;2.40;;
57071;SDS011;42956;51.366;11.298;2023-04-03T03:25:03;7.47;;;2.22;;
57071;SDS011;42956;51.366;11.298;2023-04-03T03:27:31;9.10;;;2.20;;
57071;SDS011;42956;51.366;11.298;2023-04-03T03:29:59;6.70;;;2.22;;
57071;SDS011;42956;51.366;11.298;2023-04-03T03:32:27;5.78;;;2.22;;
57071;SDS011;42956;51.366;11.298;2023-04-03T03:34:56;8.88;;;2.25;;
57071;SDS011;42956;51.366;11.298;2023-04-03T03:37:24;3.03;;;1.83;;
57071;SDS011;42956;51.366;11.298;2023-04-03T03:39:52;6.13;;;1.75;;
57071;SDS011;42956;51.366;11.298;2023-04-03T03:42:20;7.82;;;3.25;;
57071;SDS011;42956;51.366;11.298;2023-04-03T03:44:48;5.53;;;1.98;;
57071;SDS011;42956;51.366;11.298;2023-04-03T03:47:16;11.20;;;2.30;;
57071;SDS011;42956;51.366;11.298;2023-04-03T03:49:44;4.03;;;2.35;;
57071;SDS011;42956;51.366;11.298;2023-04-03T03:52:14;7.10;;;2.25;;
57071;SDS011;42956;51.366;11.298;2023-04-03T03:54:42;8.85;;;2.15;;
57071;SDS011;42956;51.366;11.298;2023-04-03T03:57:09;8.75;;;3.08;;
57071;SDS011;42956;51.366;11.298;2023-04-03T03:59:37;4.05;;;2.15;;
57071;SDS011;42956;51.366;11.298;2023-04-03T04:02:07;4.18;;;2.05;;
57071;SDS011;42956;51.366;11.298;2023-04-03T04:04:36;9.73;;;2.47;;
57071;SDS011;42956;51.366;11.298;2023-04-03T04:07:03;5.90;;;2.47;;
57071;SDS011;42956;51.366;11.298;2023-04-03T04:09:33;7.57;;;2.10;;
57071;SDS011;42956;51.366;11.298;2023-04-03T04:12:01;10.88;;;2.00;;
57071;SDS011;42956;51.366;11.298;2023-04-03T04:14:29;12.68;;;2.05;;
57071;SDS011;42956;51.366;11.298;2023-04-03T04:16:56;4.85;;;3.40;;
57071;SDS011;42956;51.366;11.298;2023-04-03T04:19:24;5.95;;;2.17;;
57071;SDS011;42956;51.366;11.298;2023-04-03T04:21:52;7.78;;;2.33;;
57071;SDS011;42956;51.366;11.298;2023-04-03T04:24:20;5.47;;;2.63;;
57071;SDS011;42956;51.366;11.298;2023-04-03T04:26:50;7.70;;;2.45;;
57071;SDS011;42956;51.366;11.298;2023-04-03T04:29:18;9.32;;;3.15;;
57071;SDS011;42956;51.366;11.298;2023-04-03T04:31:46;11.10;;;2.42;;
57071;SDS011;42956;51.366;11.298;2023-04-03T04:34:14;5.03;;;2.15;;
57071;SDS011;42956;51.366;11.298;2023-04-03T04:36:42;4.55;;;1.77;;
57071;SDS011;42956;51.366;11.298;2023-04-03T04:39:10;6.60;;;2.45;;
57071;SDS011;42956;51.366;11.298;2023-04-03T04:41:38;14.20;;;2.17;;
57071;SDS011;42956;51.366;11.298;2023-04-03T04:44:07;8.35;;;2.53;;
57071;SDS011;42956;51.366;11.298;2023-04-03T04:46:35;2.70;;;1.83;;
57071;SDS011;42956;51.366;11.298;2023-04-03T04:49:04;9.98;;;2.33;;
57071;SDS011;42956;51.366;11.298;2023-04-03T04:51:32;12.60;;;2.40;;
57071;SDS011;42956;51.366;11.298;2023-04-03T04:54:14;5.30;;;2.67;;
57071;SDS011;42956;51.366;11.298;2023-04-03T04:56:42;13.90;;;2.80;;
57071;SDS011;42956;51.366;11.298;2023-04-03T04:59:11;10.05;;;2.70;;
57071;SDS011;42956;51.366;11.298;2023-04-03T05:01:39;9.02;;;2.65;;
57071;SDS011;42956;51.366;11.298;2023-04-03T05:04:07;11.23;;;2.33;;
57071;SDS011;42956;51.366;11.298;2023-04-03T05:06:36;10.70;;;2.50;;
57071;SDS011;42956;51.366;11.298;2023-04-03T05:09:03;12.98;;;2.83;;
57071;SDS011;42956;51.366;11.298;2023-04-03T05:11:31;5.93;;;2.28;;
57071;SDS011;42956;51.366;11.298;2023-04-03T05:13:59;9.68;;;2.22;;
57071;SDS011;42956;51.366;11.298;2023-04-03T05:16:29;7.72;;;2.35;;
57071;SDS011;42956;51.366;11.298;2023-04-03T05:18:56;5.97;;;1.65;;
57071;SDS011;42956;51.366;11.298;2023-04-03T05:21:24;9.30;;;2.65;;
57071;SDS011;42956;51.366;11.298;2023-04-03T05:23:54;6.15;;;2.60;;
57071;SDS011;42956;51.366;11.298;2023-04-03T05:26:22;9.45;;;2.10;;
57071;SDS011;42956;51.366;11.298;2023-04-03T05:28:50;7.55;;;2.58;;
57071;SDS011;42956;51.366;11.298;2023-04-03T05:31:18;4.85;;;1.95;;
57071;SDS011;42956;51.366;11.298;2023-04-03T05:33:48;5.72;;;2.22;;
57071;SDS011;42956;51.366;11.298;2023-04-03T05:36:17;8.18;;;1.90;;
57071;SDS011;42956;51.366;11.298;2023-04-03T05:38:45;6.07;;;2.17;;
57071;SDS011;42956;51.366;11.298;2023-04-03T05:41:13;5.22;;;1.98;;
57071;SDS011;42956;51.366;11.298;2023-04-03T05:43:41;8.73;;;2.60;;
57071;SDS011;42956;51.366;11.298;2023-04-03T05:46:10;12.85;;;3.53;;
57071;SDS011;42956;51.366;11.298;2023-04-03T05:48:38;6.60;;;2.90;;
57071;SDS011;42956;51.366;11.298;2023-04-03T05:51:09;7.82;;;1.77;;
57071;SDS011;42956;51.366;11.298;2023-04-03T05:53:41;10.48;;;2.22;;
57071;SDS011;42956;51.366;11.298;2023-04-03T05:56:10;7.00;;;2.55;;
57071;SDS011;42956;51.366;11.298;2023-04-03T05:58:37;10.43;;;2.30;;
57071;SDS011;42956;51.366;11.298;2023-04-03T06:01:06;9.00;;;2.60;;
57071;SDS011;42956;51.366;11.298;2023-04-03T06:03:34;7.95;;;2.50;;
57071;SDS011;42956;51.366;11.298;2023-04-03T06:06:05;8.70;;;3.88;;
57071;SDS011;42956;51.366;11.298;2023-04-03T06:08:34;10.30;;;4.38;;
57071;SDS011;42956;51.366;11.298;2023-04-03T06:11:02;9.43;;;4.18;;
57071;SDS011;42956;51.366;11.298;2023-04-03T06:13:30;6.10;;;2.58;;
57071;SDS011;42956;51.366;11.298;2023-04-03T06:15:58;9.05;;;2.70;;
57071;SDS011;42956;51.366;11.298;2023-04-03T06:18:26;8.57;;;2.42;;
57071;SDS011;42956;51.366;11.298;2023-04-03T06:20:54;7.50;;;2.83;;
57071;SDS011;42956;51.366;11.298;2023-04-03T06:23:22;13.10;;;5.13;;
57071;SDS011;42956;51.366;11.298;2023-04-03T06:25:51;24.88;;;9.57;;
57071;SDS011;42956;51.366;11.298;2023-04-03T06:28:18;12.73;;;6.32;;
57071;SDS011;42956;51.366;11.298;2023-04-03T06:30:46;5.07;;;2.90;;
57071;SDS011;42956;51.366;11.298;2023-04-03T06:33:14;4.75;;;2.50;;
57071;SDS011;42956;51.366;11.298;2023-04-03T06:35:42;6.03;;;2.08;;
57071;SDS011;42956;51.366;11.298;2023-04-03T06:38:10;7.95;;;2.20;;
57071;SDS011;42956;51.366;11.298;2023-04-03T06:40:38;4.65;;;2.10;;
57071;SDS011;42956;51.366;11.298;2023-04-03T06:43:07;9.55;;;2.15;;
57071;SDS011;42956;51.366;11.298;2023-04-03T06:45:35;11.32;;;2.03;;
57071;SDS011;42956;51.366;11.298;2023-04-03T06:48:03;3.80;;;2.35;;
57071;SDS011;42956;51.366;11.298;2023-04-03T06:50:32;6.55;;;2.53;;
57071;SDS011;42956;51.366;11.298;2023-04-03T06:53:00;5.47;;;2.40;;
57071;SDS011;42956;51.366;11.298;2023-04-03T06:55:28;7.95;;;2.22;;
57071;SDS011;42956;51.366;11.298;2023-04-03T06:57:57;9.90;;;1.92;;
57071;SDS011;42956;51.366;11.298;2023-04-03T07:00:26;5.82;;;1.70;;
57071;SDS011;42956;51.366;11.298;2023-04-03T07:02:54;9.15;;;2.72;;
57071;SDS011;42956;51.366;11.298;2023-04-03T07:05:23;4.20;;;1.83;;
57071;SDS011;42956;51.366;11.298;2023-04-03T07:07:51;6.47;;;1.80;;
57071;SDS011;42956;51.366;11.298;2023-04-03T07:10:19;7.65;;;2.05;;
57071;SDS011;42956;51.366;11.298;2023-04-03T07:12:47;5.28;;;1.90;;
57071;SDS011;42956;51.366;11.298;2023-04-03T07:15:15;3.30;;;1.50;;
57071;SDS011;42956;51.366;11.298;2023-04-03T07:17:44;3.90;;;1.58;;
57071;SDS011;42956;51.366;11.298;2023-04-03T07:20:13;6.15;;;1.75;;
57071;SDS011;42956;51.366;11.298;2023-04-03T07:22:41;10.77;;;1.98;;
57071;SDS011;42956;51.366;11.298;2023-04-03T07:25:09;17.20;;;2.65;;
57071;SDS011;42956;51.366;11.298;2023-04-03T07:27:37;8.38;;;1.95;;
57071;SDS011;42956;51.366;11.298;2023-04-03T07:30:06;7.40;;;1.60;;
57071;SDS011;42956;51.366;11.298;2023-04-03T07:32:34;5.15;;;1.50;;
57071;SDS011;42956;51.366;11.298;2023-04-03T07:35:03;3.97;;;1.35;;
57071;SDS011;42956;51.366;11.298;2023-04-03T07:37:31;4.40;;;1.90;;
57071;SDS011;42956;51.366;11.298;2023-04-03T07:39:59;5.57;;;1.70;;
57071;SDS011;42956;51.366;11.298;2023-04-03T07:42:30;8.10;;;1.77;;
57071;SDS011;42956;51.366;11.298;2023-04-03T07:44:58;6.55;;;1.40;;
57071;SDS011;42956;51.366;11.298;2023-04-03T07:47:27;6.88;;;1.67;;
57071;SDS011;42956;51.366;11.298;2023-04-03T07:49:54;7.32;;;1.85;;
57071;SDS011;42956;51.366;11.298;2023-04-03T07:52:25;9.70;;;1.65;;
57071;SDS011;42956;51.366;11.298;2023-04-03T07:54:53;3.88;;;1.33;;
57071;SDS011;42956;51.366;11.298;2023-04-03T07:57:21;5.72;;;1.52;;
57071;SDS011;42956;51.366;11.298;2023-04-03T07:59:49;8.85;;;1.73;;
57071;SDS011;42956;51.366;11.298;2023-04-03T08:02:16;2.50;;;1.25;;
57071;SDS011;42956;51.366;11.298;2023-04-03T08:04:45;6.30;;;1.50;;
57071;SDS011;42956;51.366;11.298;2023-04-03T08:07:13;6.50;;;1.80;;
57071;SDS011;42956;51.366;11.298;2023-04-03T08:09:42;7.07;;;1.67;;
57071;SDS011;42956;51.366;11.298;2023-04-03T08:12:11;3.67;;;1.38;;
57071;SDS011;42956;51.366;11.298;2023-04-03T08:14:39;5.18;;;1.10;;
57071;SDS011;42956;51.366;11.298;2023-04-03T08:17:07;2.25;;;1.13;;
57071;SDS011;42956;51.366;11.298;2023-04-03T08:19:38;4.38;;;1.83;;
57071;SDS011;42956;51.366;11.298;2023-04-03T08:22:06;5.28;;;1.67;;
57071;SDS011;42956;51.366;11.298;2023-04-03T08:24:34;5.75;;;1.38;;
57071;SDS011;42956;51.366;11.298;2023-04-03T08:27:06;13.20;;;1.60;;
57071;SDS011;42956;51.366;11.298;2023-04-03T08:29:34;9.45;;;2.60;;
57071;SDS011;42956;51.366;11.298;2023-04-03T08:32:04;3.65;;;1.50;;
57071;SDS011;42956;51.366;11.298;2023-04-03T08:34:32;4.88;;;1.52;;
57071;SDS011;42956;51.366;11.298;2023-04-03T08:37:01;4.57;;;1.30;;
57071;SDS011;42956;51.366;11.298;2023-04-03T08:39:29;4.43;;;1.27;;
57071;SDS011;42956;51.366;11.298;2023-04-03T08:41:57;3.30;;;1.45;;
57071;SDS011;42956;51.366;11.298;2023-04-03T08:44:29;5.65;;;2.35;;
57071;SDS011;42956;51.366;11.298;2023-04-03T08:47:02;4.95;;;1.70;;
57071;SDS011;42956;51.366;11.298;2023-04-03T08:49:33;4.95;;;1.45;;
57071;SDS011;42956;51.366;11.298;2023-04-03T08:52:04;5.47;;;1.40;;
57071;SDS011;42956;51.366;11.298;2023-04-03T08:54:33;6.07;;;1.77;;
57071;SDS011;42956;51.366;11.298;2023-04-03T08:57:02;9.30;;;2.20;;
57071;SDS011;42956;51.366;11.298;2023-04-03T08:59:34;4.32;;;1.58;;
57071;SDS011;42956;51.366;11.298;2023-04-03T09:02:04;7.60;;;1.70;;
57071;SDS011;42956;51.366;11.298;2023-04-03T09:04:33;6.53;;;1.45;;
57071;SDS011;42956;51.366;11.298;2023-04-03T09:07:02;8.00;;;1.75;;
57071;SDS011;42956;51.366;11.298;2023-04-03T09:09:35;4.68;;;1.55;;
57071;SDS011;42956;51.366;11.298;2023-04-03T09:12:04;5.18;;;1.60;;
57071;SDS011;42956;51.366;11.298;2023-04-03T09:14:38;5.55;;;1.42;;
57071;SDS011;42956;51.366;11.298;2023-04-03T09:17:09;2.25;;;1.05;;
57071;SDS011;42956;51.366;11.298;2023-04-03T09:19:41;6.47;;;1.40;;
57071;SDS011;42956;51.366;11.298;2023-04-03T09:22:13;3.78;;;1.20;;
57071;SDS011;42956;51.366;11.298;2023-04-03T09:24:44;6.47;;;1.52;;
57071;SDS011;42956;51.366;11.298;2023-04-03T09:27:13;4.88;;;1.20;;
57071;SDS011;42956;51.366;11.298;2023-04-03T09:29:43;5.53;;;1.42;;
57071;SDS011;42956;51.366;11.298;2023-04-03T09:32:18;6.95;;;1.85;;
57071;SDS011;42956;51.366;11.298;2023-04-03T09:34:46;4.95;;;1.60;;
57071;SDS011;42956;51.366;11.298;2023-04-03T09:37:32;4.32;;;1.70;;
57071;SDS011;42956;51.366;11.298;2023-04-03T09:40:01;4.63;;;1.20;;
57071;SDS011;42956;51.366;11.298;2023-04-03T09:42:31;12.68;;;4.90;;
57071;SDS011;42956;51.366;11.298;2023-04-03T09:45:02;4.78;;;1.90;;
57071;SDS011;42956;51.366;11.298;2023-04-03T09:47:31;8.45;;;1.90;;
57071;SDS011;42956;51.366;11.298;2023-04-03T09:50:17;3.45;;;1.50;;
57071;SDS011;42956;51.366;11.298;2023-04-03T09:52:46;3.13;;;1.17;;
57071;SDS011;42956;51.366;11.298;2023-04-03T09:55:14;3.72;;;1.27;;
57071;SDS011;42956;51.366;11.298;2023-04-03T09:57:43;6.05;;;1.45;;
57071;SDS011;42956;51.366;11.298;2023-04-03T10:00:20;5.57;;;1.60;;
57071;SDS011;42956;51.366;11.298;2023-04-03T10:02:49;2.72;;;0.95;;
57071;SDS011;42956;51.366;11.298;2023-04-03T10:05:28;3.38;;;1.50;;
57071;SDS011;42956;51.366;11.298;2023-04-03T10:08:09;3.13;;;1.15;;
57071;SDS011;42956;51.366;11.298;2023-04-03T10:10:38;5.43;;;1.17;;
57071;SDS011;42956;51.366;11.298;2023-04-03T10:13:06;4.63;;;1.35;;
57071;SDS011;42956;51.366;11.298;2023-04-03T10:15:42;4.85;;;2.00;;
57071;SDS011;42956;51.366;11.298;2023-04-03T10:18:17;5.13;;;1.50;;
57071;SDS011;42956;51.366;11.298;2023-04-03T10:20:51;6.25;;;2.67;;
57071;SDS011;42956;51.366;11.298;2023-04-03T10:23:21;6.85;;;1.30;;
57071;SDS011;42956;51.366;11.298;2023-04-03T10:25:53;1.42;;;1.17;;
57071;SDS011;42956;51.366;11.298;2023-04-03T10:28:25;4.85;;;1.38;;
57071;SDS011;42956;51.366;11.298;2023-04-03T10:30:57;4.32;;;2.58;;
57071;SDS011;42956;51.366;11.298;2023-04-03T10:33:33;6.30;;;1.38;;
57071;SDS011;42956;51.366;11.298;2023-04-03T10:36:08;7.35;;;2.15;;
57071;SDS011;42956;51.366;11.298;2023-04-03T10:38:40;3.45;;;1.33;;
57071;SDS011;42956;51.366;11.298;2023-04-03T10:41:12;1.87;;;1.20;;
57071;SDS011;42956;51.366;11.298;2023-04-03T10:43:43;3.57;;;1.30;;
57071;SDS011;42956;51.366;11.298;2023-04-03T10:46:14;6.07;;;1.48;;
57071;SDS011;42956;51.366;11.298;2023-04-03T10:48:48;1.85;;;1.10;;
57071;SDS011;42956;51.366;11.298;2023-04-03T10:51:28;8.98;;;1.80;;
57071;SDS011;42956;51.366;11.298;2023-04-03T10:53:58;1.90;;;1.40;;
57071;SDS011;42956;51.366;11.298;2023-04-03T10:56:30;5.22;;;1.10;;
57071;SDS011;42956;51.366;11.298;2023-04-03T10:59:00;4.90;;;1.00;;
57071;SDS011;42956;51.366;11.298;2023-04-03T11:01:32;3.88;;;1.10;;
57071;SDS011;42956;51.366;11.298;2023-04-03T11:04:02;3.08;;;1.00;;
57071;SDS011;42956;51.366;11.298;2023-04-03T11:06:32;5.05;;;1.33;;
57071;SDS011;42956;51.366;11.298;2023-04-03T11:09:05;2.53;;;1.13;;
57071;SDS011;42956;51.366;11.298;2023-04-03T11:11:36;4.78;;;1.48;;
57071;SDS011;42956;51.366;11.298;2023-04-03T11:14:09;3.00;;;1.20;;
57071;SDS011;42956;51.366;11.298;2023-04-03T11:16:40;2.40;;;1.40;;
57071;SDS011;42956;51.366;11.298;2023-04-03T11:19:20;4.55;;;1.10;;
57071;SDS011;42956;51.366;11.298;2023-04-03T11:21:51;5.55;;;1.45;;
57071;SDS011;42956;51.366;11.298;2023-04-03T11:24:23;3.08;;;1.52;;
57071;SDS011;42956;51.366;11.298;2023-04-03T11:26:51;3.28;;;1.40;;
57071;SDS011;42956;51.366;11.298;2023-04-03T11:29:22;2.78;;;1.30;;
57071;SDS011;42956;51.366;11.298;2023-04-03T11:32:06;4.50;;;1.05;;
57071;SDS011;42956;51.366;11.298;2023-04-03T11:34:35;3.00;;;1.00;;
57071;SDS011;42956;51.366;11.298;2023-04-03T11:37:11;4.97;;;1.07;;
57071;SDS011;42956;51.366;11.298;2023-04-03T11:39:40;2.53;;;1.10;;
57071;SDS011;42956;51.366;11.298;2023-04-03T11:42:15;4.45;;;1.33;;
57071;SDS011;42956;51.366;11.298;2023-04-03T11:44:44;4.95;;;1.42;;
57071;SDS011;42956;51.366;11.298;2023-04-03T11:47:42;1.60;;;0.88;;
57071;SDS011;42956;51.366;11.298;2023-04-03T11:50:03;1.65;;;1.20;;
57071;SDS011;42956;51.366;11.298;2023-04-03T11:58:13;2.70;;;1.15;;
57071;SDS011;42956;51.366;11.298;2023-04-03T12:00:52;3.17;;;1.20;;
57071;SDS011;42956;51.366;11.298;2023-04-03T12:03:30;4.30;;;1.30;;
57071;SDS011;42956;51.366;11.298;2023-04-03T12:08:49;6.03;;;2.40;;
57071;SDS011;42956;51.366;11.298;2023-04-03T12:11:22;13.13;;;4.20;;
57071;SDS011;42956;51.366;11.298;2023-04-03T12:14:02;5.20;;;2.60;;
57071;SDS011;42956;51.366;11.298;2023-04-03T12:16:32;3.45;;;1.98;;
57071;SDS011;42956;51.366;11.298;2023-04-03T12:19:03;6.55;;;1.58;;
57071;SDS011;42956;51.366;11.298;2023-04-03T12:24:25;6.13;;;2.42;;
57071;SDS011;42956;51.366;11.298;2023-04-03T12:27:04;4.70;;;1.90;;
57071;SDS011;42956;51.366;11.298;2023-04-03T12:29:33;2.35;;;1.15;;
57071;SDS011;42956;51.366;11.298;2023-04-03T12:32:06;2.58;;;1.35;;
57071;SDS011;42956;51.366;11.298;2023-04-03T12:34:41;3.40;;;1.75;;
57071;SDS011;42956;51.366;11.298;2023-04-03T12:37:16;7.32;;;1.25;;
57071;SDS011;42956;51.366;11.298;2023-04-03T12:39:50;3.75;;;1.63;;
57071;SDS011;42956;51.366;11.298;2023-04-03T12:42:24;4.88;;;1.10;;
57071;SDS011;42956;51.366;11.298;2023-04-03T12:44:57;6.40;;;2.55;;
57071;SDS011;42956;51.366;11.298;2023-04-03T12:47:28;3.33;;;1.42;;
57071;SDS011;42956;51.366;11.298;2023-04-03T12:49:57;4.57;;;1.30;;
57071;SDS011;42956;51.366;11.298;2023-04-03T12:52:30;3.92;;;1.35;;
57071;SDS011;42956;51.366;11.298;2023-04-03T12:54:59;2.75;;;1.25;;
57071;SDS011;42956;51.366;11.298;2023-04-03T12:57:30;6.07;;;1.58;;
57071;SDS011;42956;51.366;11.298;2023-04-03T12:59:59;3.38;;;1.50;;
57071;SDS011;42956;51.366;11.298;2023-04-03T13:02:27;4.75;;;1.42;;
57071;SDS011;42956;51.366;11.298;2023-04-03T13:04:57;2.85;;;1.33;;
57071;SDS011;42956;51.366;11.298;2023-04-03T13:07:27;3.95;;;1.85;;
57071;SDS011;42956;51.366;11.298;2023-04-03T13:09:59;3.38;;;2.10;;
57071;SDS011;42956;51.366;11.298;2023-04-03T13:12:27;3.35;;;1.40;;
57071;SDS011;42956;51.366;11.298;2023-04-03T13:14:59;3.85;;;2.08;;
57071;SDS011;42956;51.366;11.298;2023-04-03T13:17:27;2.67;;;1.50;;
57071;SDS011;42956;51.366;11.298;2023-04-03T13:20:06;3.88;;;1.42;;
57071;SDS011;42956;51.366;11.298;2023-04-03T13:22:37;4.07;;;2.03;;
57071;SDS011;42956;51.366;11.298;2023-04-03T13:25:11;1.73;;;1.10;;
57071;SDS011;42956;51.366;11.298;2023-04-03T13:27:40;3.05;;;1.38;;
57071;SDS011;42956;51.366;11.298;2023-04-03T13:30:20;3.97;;;1.10;;
57071;SDS011;42956;51.366;11.298;2023-04-03T13:32:48;4.07;;;1.70;;
57071;SDS011;42956;51.366;11.298;2023-04-03T13:35:28;5.22;;;1.23;;
57071;SDS011;42956;51.366;11.298;2023-04-03T13:37:58;4.32;;;1.33;;
57071;SDS011;42956;51.366;11.298;2023-04-03T13:40:26;4.55;;;1.70;;
57071;SDS011;42956;51.366;11.298;2023-04-03T13:43:05;4.65;;;1.40;;
57071;SDS011;42956;51.366;11.298;2023-04-03T13:45:33;10.07;;;4.13;;
57071;SDS011;42956;51.366;11.298;2023-04-03T13:48:10;11.45;;;5.22;;
57071;SDS011;42956;51.366;11.298;2023-04-03T13:50:52;5.75;;;3.20;;
57071;SDS011;42956;51.366;11.298;2023-04-03T13:53:21;2.60;;;1.77;;
57071;SDS011;42956;51.366;11.298;2023-04-03T13:55:54;3.25;;;1.63;;
57071;SDS011;42956;51.366;11.298;2023-04-03T13:58:23;5.50;;;1.75;;
57071;SDS011;42956;51.366;11.298;2023-04-03T14:00:52;3.80;;;2.08;;
57071;SDS011;42956;51.366;11.298;2023-04-03T14:03:21;3.33;;;1.30;;
57071;SDS011;42956;51.366;11.298;2023-04-03T14:05:50;3.22;;;1.20;;
57071;SDS011;42956;51.366;11.298;2023-04-03T14:08:19;4.53;;;1.55;;
57071;SDS011;42956;51.366;11.298;2023-04-03T14:10:58;4.20;;;1.50;;
57071;SDS011;42956;51.366;11.298;2023-04-03T14:13:29;5.75;;;1.60;;
57071;SDS011;42956;51.366;11.298;2023-04-03T14:15:57;2.45;;;1.30;;
57071;SDS011;42956;51.366;11.298;2023-04-03T14:18:40;6.38;;;2.67;;
57071;SDS011;42956;51.366;11.298;2023-04-03T14:21:10;2.70;;;1.70;;
57071;SDS011;42956;51.366;11.298;2023-04-03T14:23:40;6.75;;;1.77;;
57071;SDS011;42956;51.366;11.298;2023-04-03T14:26:10;5.57;;;1.80;;
57071;SDS011;42956;51.366;11.298;2023-04-03T14:28:38;2.25;;;1.20;;
57071;SDS011;42956;51.366;11.298;2023-04-03T14:31:09;2.40;;;1.30;;
57071;SDS011;42956;51.366;11.298;2023-04-03T14:33:40;5.38;;;1.30;;
57071;SDS011;42956;51.366;11.298;2023-04-03T14:36:11;6.70;;;1.83;;
57071;SDS011;42956;51.366;11.298;2023-04-03T14:38:44;3.47;;;1.30;;
57071;SDS011;42956;51.366;11.298;2023-04-03T14:41:17;5.43;;;1.80;;
57071;SDS011;42956;51.366;11.298;2023-04-03T14:43:45;5.50;;;1.33;;
57071;SDS011;42956;51.366;11.298;2023-04-03T14:46:14;4.53;;;1.52;;
57071;SDS011;42956;51.366;11.298;2023-04-03T14:48:43;2.08;;;1.42;;
57071;SDS011;42956;51.366;11.298;2023-04-03T14:51:12;3.80;;;1.70;;
57071;SDS011;42956;51.366;11.298;2023-04-03T14:53:43;3.13;;;1.80;;
57071;SDS011;42956;51.366;11.298;2023-04-03T14:56:12;3.45;;;1.50;;
57071;SDS011;42956;51.366;11.298;2023-04-03T14:58:43;3.55;;;1.77;;
57071;SDS011;42956;51.366;11.298;2023-04-03T15:01:11;4.15;;;1.50;;
57071;SDS011;42956;51.366;11.298;2023-04-03T15:03:40;4.88;;;2.25;;